sensor_id;sensor_type;location;lat;lon;timestamp;temperature;humidity
45491;DHT22;31237;45.586;13.782;2023-04-10T00:02:19;7.70;67.60
45491;DHT22;31237;45.586;13.782;2023-04-10T00:04:45;7.70;67.50
45491;DHT22;31237;45.586;13.782;2023-04-10T00:07:11;7.70;67.30
45491;DHT22;31237;45.586;13.782;2023-04-10T00:09:37;7.70;67.30
45491;DHT22;31237;45.586;13.782;2023-04-10T00:12:03;7.70;67.20
45491;DHT22;31237;45.586;13.782;2023-04-10T00:14:29;7.70;67.10
45491;DHT22;31237;45.586;13.782;2023-04-10T00:16:54;7.70;67.10
45491;DHT22;31237;45.586;13.782;2023-04-10T00:19:20;7.70;67.00
45491;DHT22;31237;45.586;13.782;2023-04-10T00:21:46;7.70;66.80
45491;DHT22;31237;45.586;13.782;2023-04-10T00:24:12;7.70;66.80
45491;DHT22;31237;45.586;13.782;2023-04-10T00:26:38;7.70;66.70
45491;DHT22;31237;45.586;13.782;2023-04-10T00:29:03;7.70;66.90
45491;DHT22;31237;45.586;13.782;2023-04-10T00:31:29;7.70;66.70
45491;DHT22;31237;45.586;13.782;2023-04-10T00:33:56;7.70;66.70
45491;DHT22;31237;45.586;13.782;2023-04-10T00:36:22;7.60;66.70
45491;DHT22;31237;45.586;13.782;2023-04-10T00:38:48;7.60;66.80
45491;DHT22;31237;45.586;13.782;2023-04-10T00:41:17;7.60;66.90
45491;DHT22;31237;45.586;13.782;2023-04-10T00:43:43;7.60;67.00
45491;DHT22;31237;45.586;13.782;2023-04-10T00:46:09;7.60;66.90
45491;DHT22;31237;45.586;13.782;2023-04-10T00:48:36;7.60;67.10
45491;DHT22;31237;45.586;13.782;2023-04-10T00:51:02;7.50;67.10
45491;DHT22;31237;45.586;13.782;2023-04-10T00:53:29;7.50;67.20
45491;DHT22;31237;45.586;13.782;2023-04-10T00:55:55;7.40;67.20
45491;DHT22;31237;45.586;13.782;2023-04-10T00:58:21;7.40;67.20
45491;DHT22;31237;45.586;13.782;2023-04-10T01:00:47;7.40;67.30
45491;DHT22;31237;45.586;13.782;2023-04-10T01:03:15;7.40;67.30
45491;DHT22;31237;45.586;13.782;2023-04-10T01:08:50;7.30;67.50
45491;DHT22;31237;45.586;13.782;2023-04-10T01:11:44;7.30;67.60
45491;DHT22;31237;45.586;13.782;2023-04-10T01:17:25;7.20;68.00
45491;DHT22;31237;45.586;13.782;2023-04-10T01:20:09;7.20;68.10
45491;DHT22;31237;45.586;13.782;2023-04-10T01:25:55;7.10;68.10
45491;DHT22;31237;45.586;13.782;2023-04-10T01:28:58;7.10;68.20
45491;DHT22;31237;45.586;13.782;2023-04-10T01:31:49;7.00;68.20
45491;DHT22;31237;45.586;13.782;2023-04-10T01:34:18;7.00;68.20
45491;DHT22;31237;45.586;13.782;2023-04-10T01:36:50;7.00;68.40
45491;DHT22;31237;45.586;13.782;2023-04-10T01:39:20;6.90;68.60
45491;DHT22;31237;45.586;13.782;2023-04-10T01:41:48;6.90;68.80
45491;DHT22;31237;45.586;13.782;2023-04-10T01:44:15;6.90;69.00
45491;DHT22;31237;45.586;13.782;2023-04-10T01:46:43;6.80;69.00
45491;DHT22;31237;45.586;13.782;2023-04-10T01:49:10;6.80;69.10
45491;DHT22;31237;45.586;13.782;2023-04-10T01:51:38;6.70;69.20
45491;DHT22;31237;45.586;13.782;2023-04-10T01:54:04;6.70;69.60
45491;DHT22;31237;45.586;13.782;2023-04-10T01:56:32;6.70;69.60
45491;DHT22;31237;45.586;13.782;2023-04-10T01:58:58;6.70;69.70
45491;DHT22;31237;45.586;13.782;2023-04-10T02:01:24;6.60;69.90
45491;DHT22;31237;45.586;13.782;2023-04-10T02:03:50;6.60;70.00
45491;DHT22;31237;45.586;13.782;2023-04-10T02:11:57;6.50;70.00
45491;DHT22;31237;45.586;13.782;2023-04-10T02:14:25;6.40;70.20
45491;DHT22;31237;45.586;13.782;2023-04-10T02:16:55;6.40;70.60
45491;DHT22;31237;45.586;13.782;2023-04-10T02:19:23;6.30;70.90
45491;DHT22;31237;45.586;13.782;2023-04-10T02:21:50;6.30;71.10
45491;DHT22;31237;45.586;13.782;2023-04-10T02:24:16;6.40;71.10
45491;DHT22;31237;45.586;13.782;2023-04-10T02:26:44;6.30;71.20
45491;DHT22;31237;45.586;13.782;2023-04-10T02:29:10;6.30;71.40
45491;DHT22;31237;45.586;13.782;2023-04-10T02:31:36;6.30;71.50
45491;DHT22;31237;45.586;13.782;2023-04-10T02:34:02;6.40;71.60
45491;DHT22;31237;45.586;13.782;2023-04-10T02:36:28;6.30;71.70
45491;DHT22;31237;45.586;13.782;2023-04-10T02:38:54;6.40;71.90
45491;DHT22;31237;45.586;13.782;2023-04-10T02:41:19;6.40;71.90
45491;DHT22;31237;45.586;13.782;2023-04-10T02:43:46;6.40;71.90
45491;DHT22;31237;45.586;13.782;2023-04-10T02:46:12;6.40;71.90
45491;DHT22;31237;45.586;13.782;2023-04-10T02:48:37;6.40;72.00
45491;DHT22;31237;45.586;13.782;2023-04-10T02:51:03;6.40;72.20
45491;DHT22;31237;45.586;13.782;2023-04-10T02:53:29;6.40;72.30
45491;DHT22;31237;45.586;13.782;2023-04-10T02:55:55;6.40;72.30
45491;DHT22;31237;45.586;13.782;2023-04-10T02:58:20;6.40;72.40
45491;DHT22;31237;45.586;13.782;2023-04-10T03:00:47;6.40;72.30
45491;DHT22;31237;45.586;13.782;2023-04-10T03:03:13;6.40;72.30
45491;DHT22;31237;45.586;13.782;2023-04-10T03:05:39;6.40;72.20
45491;DHT22;31237;45.586;13.782;2023-04-10T03:08:04;6.50;72.20
45491;DHT22;31237;45.586;13.782;2023-04-10T03:10:30;6.40;72.00
45491;DHT22;31237;45.586;13.782;2023-04-10T03:12:56;6.50;72.10
45491;DHT22;31237;45.586;13.782;2023-04-10T03:15:21;6.40;72.00
45491;DHT22;31237;45.586;13.782;2023-04-10T03:17:47;6.50;72.00
45491;DHT22;31237;45.586;13.782;2023-04-10T03:20:13;6.40;72.00
45491;DHT22;31237;45.586;13.782;2023-04-10T03:22:41;6.40;72.20
45491;DHT22;31237;45.586;13.782;2023-04-10T03:25:07;6.40;72.30
45491;DHT22;31237;45.586;13.782;2023-04-10T03:27:33;6.30;72.50
45491;DHT22;31237;45.586;13.782;2023-04-10T03:29:59;6.30;72.70
45491;DHT22;31237;45.586;13.782;2023-04-10T03:32:27;6.20;72.90
45491;DHT22;31237;45.586;13.782;2023-04-10T03:34:56;6.20;73.30
45491;DHT22;31237;45.586;13.782;2023-04-10T03:37:21;6.10;73.80
45491;DHT22;31237;45.586;13.782;2023-04-10T03:39:47;6.10;74.00
45491;DHT22;31237;45.586;13.782;2023-04-10T03:42:13;6.00;74.10
45491;DHT22;31237;45.586;13.782;2023-04-10T03:44:38;6.00;74.20
45491;DHT22;31237;45.586;13.782;2023-04-10T03:47:04;6.00;74.30
45491;DHT22;31237;45.586;13.782;2023-04-10T03:49:30;5.90;74.40
45491;DHT22;31237;45.586;13.782;2023-04-10T03:51:55;5.90;74.40
45491;DHT22;31237;45.586;13.782;2023-04-10T03:54:21;5.90;74.30
45491;DHT22;31237;45.586;13.782;2023-04-10T03:56:47;5.90;74.20
45491;DHT22;31237;45.586;13.782;2023-04-10T03:59:12;5.90;74.30
45491;DHT22;31237;45.586;13.782;2023-04-10T04:01:38;5.90;74.30
45491;DHT22;31237;45.586;13.782;2023-04-10T04:04:04;5.90;74.20
45491;DHT22;31237;45.586;13.782;2023-04-10T04:06:30;5.90;74.00
45491;DHT22;31237;45.586;13.782;2023-04-10T04:08:56;6.00;73.90
45491;DHT22;31237;45.586;13.782;2023-04-10T04:11:22;6.00;73.60
45491;DHT22;31237;45.586;13.782;2023-04-10T04:13:47;6.10;73.40
45491;DHT22;31237;45.586;13.782;2023-04-10T04:16:13;6.10;73.30
45491;DHT22;31237;45.586;13.782;2023-04-10T04:18:39;6.10;73.10
45491;DHT22;31237;45.586;13.782;2023-04-10T04:21:05;6.10;73.00
45491;DHT22;31237;45.586;13.782;2023-04-10T04:23:33;6.10;72.90
45491;DHT22;31237;45.586;13.782;2023-04-10T04:25:58;6.20;72.80
45491;DHT22;31237;45.586;13.782;2023-04-10T04:28:24;6.20;72.70
45491;DHT22;31237;45.586;13.782;2023-04-10T04:30:49;6.20;72.60
45491;DHT22;31237;45.586;13.782;2023-04-10T04:33:15;6.20;72.50
45491;DHT22;31237;45.586;13.782;2023-04-10T04:35:41;6.30;72.40
45491;DHT22;31237;45.586;13.782;2023-04-10T04:38:06;6.30;72.30
45491;DHT22;31237;45.586;13.782;2023-04-10T04:40:32;6.40;72.20
45491;DHT22;31237;45.586;13.782;2023-04-10T04:42:58;6.40;72.00
45491;DHT22;31237;45.586;13.782;2023-04-10T04:45:23;6.40;71.90
45491;DHT22;31237;45.586;13.782;2023-04-10T04:47:49;6.50;71.80
45491;DHT22;31237;45.586;13.782;2023-04-10T04:50:15;6.50;71.80
45491;DHT22;31237;45.586;13.782;2023-04-10T04:52:42;6.50;71.80
45491;DHT22;31237;45.586;13.782;2023-04-10T04:55:08;6.50;71.70
45491;DHT22;31237;45.586;13.782;2023-04-10T04:57:34;6.50;71.90
45491;DHT22;31237;45.586;13.782;2023-04-10T05:00:00;6.50;72.00
45491;DHT22;31237;45.586;13.782;2023-04-10T05:02:25;6.50;72.00
45491;DHT22;31237;45.586;13.782;2023-04-10T05:04:51;6.50;72.00
45491;DHT22;31237;45.586;13.782;2023-04-10T05:07:17;6.60;72.20
45491;DHT22;31237;45.586;13.782;2023-04-10T05:09:42;6.60;72.80
45491;DHT22;31237;45.586;13.782;2023-04-10T05:12:08;6.60;72.00
45491;DHT22;31237;45.586;13.782;2023-04-10T05:14:33;6.70;72.00
45491;DHT22;31237;45.586;13.782;2023-04-10T05:16:59;6.70;71.80
45491;DHT22;31237;45.586;13.782;2023-04-10T05:19:25;6.80;71.70
45491;DHT22;31237;45.586;13.782;2023-04-10T05:21:51;6.80;71.70
45491;DHT22;31237;45.586;13.782;2023-04-10T05:24:16;6.90;71.50
45491;DHT22;31237;45.586;13.782;2023-04-10T05:26:42;6.90;71.40
45491;DHT22;31237;45.586;13.782;2023-04-10T05:29:08;7.00;71.10
45491;DHT22;31237;45.586;13.782;2023-04-10T05:31:33;7.00;71.00
45491;DHT22;31237;45.586;13.782;2023-04-10T05:33:59;7.10;70.80
45491;DHT22;31237;45.586;13.782;2023-04-10T05:36:25;7.10;70.60
45491;DHT22;31237;45.586;13.782;2023-04-10T05:38:51;7.20;70.60
45491;DHT22;31237;45.586;13.782;2023-04-10T05:41:16;7.30;70.50
45491;DHT22;31237;45.586;13.782;2023-04-10T05:43:42;7.30;70.20
45491;DHT22;31237;45.586;13.782;2023-04-10T05:46:08;7.40;69.90
45491;DHT22;31237;45.586;13.782;2023-04-10T05:48:33;7.40;69.20
45491;DHT22;31237;45.586;13.782;2023-04-10T05:50:59;7.50;67.80
45491;DHT22;31237;45.586;13.782;2023-04-10T05:53:28;7.60;67.30
45491;DHT22;31237;45.586;13.782;2023-04-10T05:55:57;7.70;67.10
45491;DHT22;31237;45.586;13.782;2023-04-10T05:58:27;7.80;66.60
45491;DHT22;31237;45.586;13.782;2023-04-10T06:00:53;7.80;66.00
45491;DHT22;31237;45.586;13.782;2023-04-10T06:03:20;7.90;65.10
45491;DHT22;31237;45.586;13.782;2023-04-10T06:05:46;8.00;64.80
45491;DHT22;31237;45.586;13.782;2023-04-10T06:08:12;8.10;64.40
45491;DHT22;31237;45.586;13.782;2023-04-10T06:10:37;8.20;64.10
45491;DHT22;31237;45.586;13.782;2023-04-10T06:13:03;8.20;63.60
45491;DHT22;31237;45.586;13.782;2023-04-10T06:15:29;8.30;63.10
45491;DHT22;31237;45.586;13.782;2023-04-10T06:17:55;8.40;62.60
45491;DHT22;31237;45.586;13.782;2023-04-10T06:20:20;8.50;62.40
45491;DHT22;31237;45.586;13.782;2023-04-10T06:22:46;8.60;61.60
45491;DHT22;31237;45.586;13.782;2023-04-10T06:25:12;8.60;61.70
45491;DHT22;31237;45.586;13.782;2023-04-10T06:27:38;8.70;62.00
45491;DHT22;31237;45.586;13.782;2023-04-10T06:30:04;8.80;61.70
45491;DHT22;31237;45.586;13.782;2023-04-10T06:32:30;8.80;61.70
45491;DHT22;31237;45.586;13.782;2023-04-10T06:34:56;8.90;61.80
45491;DHT22;31237;45.586;13.782;2023-04-10T06:37:29;9.00;61.90
45491;DHT22;31237;45.586;13.782;2023-04-10T06:40:08;9.00;61.60
45491;DHT22;31237;45.586;13.782;2023-04-10T06:42:34;9.10;61.10
45491;DHT22;31237;45.586;13.782;2023-04-10T06:45:01;9.10;60.20
45491;DHT22;31237;45.586;13.782;2023-04-10T06:47:27;9.20;60.30
45491;DHT22;31237;45.586;13.782;2023-04-10T06:49:53;9.30;60.10
45491;DHT22;31237;45.586;13.782;2023-04-10T06:52:19;9.30;59.50
45491;DHT22;31237;45.586;13.782;2023-04-10T06:54:45;9.40;58.80
45491;DHT22;31237;45.586;13.782;2023-04-10T06:57:10;9.50;58.50
45491;DHT22;31237;45.586;13.782;2023-04-10T06:59:36;9.50;58.00
45491;DHT22;31237;45.586;13.782;2023-04-10T07:02:02;9.60;57.40
45491;DHT22;31237;45.586;13.782;2023-04-10T07:04:29;9.70;57.90
45491;DHT22;31237;45.586;13.782;2023-04-10T07:06:55;9.70;57.20
45491;DHT22;31237;45.586;13.782;2023-04-10T07:09:21;9.80;57.00
45491;DHT22;31237;45.586;13.782;2023-04-10T07:11:47;9.90;56.70
45491;DHT22;31237;45.586;13.782;2023-04-10T07:14:12;10.00;57.00
45491;DHT22;31237;45.586;13.782;2023-04-10T07:16:38;10.10;57.10
45491;DHT22;31237;45.586;13.782;2023-04-10T07:19:04;10.20;56.40
45491;DHT22;31237;45.586;13.782;2023-04-10T07:21:29;10.30;56.50
45491;DHT22;31237;45.586;13.782;2023-04-10T07:23:57;10.40;56.80
45491;DHT22;31237;45.586;13.782;2023-04-10T07:26:23;10.50;56.50
45491;DHT22;31237;45.586;13.782;2023-04-10T07:28:49;10.60;56.00
45491;DHT22;31237;45.586;13.782;2023-04-10T07:31:15;10.70;55.10
45491;DHT22;31237;45.586;13.782;2023-04-10T07:33:44;10.70;54.80
45491;DHT22;31237;45.586;13.782;2023-04-10T07:36:09;10.80;55.10
45491;DHT22;31237;45.586;13.782;2023-04-10T07:38:35;10.80;54.80
45491;DHT22;31237;45.586;13.782;2023-04-10T07:41:02;10.90;54.60
45491;DHT22;31237;45.586;13.782;2023-04-10T07:43:27;11.00;54.40
45491;DHT22;31237;45.586;13.782;2023-04-10T07:45:54;11.00;55.00
45491;DHT22;31237;45.586;13.782;2023-04-10T07:48:20;11.10;54.70
45491;DHT22;31237;45.586;13.782;2023-04-10T07:50:46;11.20;53.80
45491;DHT22;31237;45.586;13.782;2023-04-10T07:53:12;11.20;53.80
45491;DHT22;31237;45.586;13.782;2023-04-10T07:55:41;11.30;53.00
45491;DHT22;31237;45.586;13.782;2023-04-10T07:58:08;11.40;53.20
45491;DHT22;31237;45.586;13.782;2023-04-10T08:00:33;11.50;53.50
45491;DHT22;31237;45.586;13.782;2023-04-10T08:03:00;11.60;53.40
45491;DHT22;31237;45.586;13.782;2023-04-10T08:05:25;11.60;51.90
45491;DHT22;31237;45.586;13.782;2023-04-10T08:07:51;11.70;51.20
45491;DHT22;31237;45.586;13.782;2023-04-10T08:10:17;11.70;52.30
45491;DHT22;31237;45.586;13.782;2023-04-10T08:12:43;11.70;52.10
45491;DHT22;31237;45.586;13.782;2023-04-10T08:15:09;11.80;51.50
45491;DHT22;31237;45.586;13.782;2023-04-10T08:17:35;11.90;51.40
45491;DHT22;31237;45.586;13.782;2023-04-10T08:20:02;12.00;52.00
45491;DHT22;31237;45.586;13.782;2023-04-10T08:22:28;12.10;51.90
45491;DHT22;31237;45.586;13.782;2023-04-10T08:24:54;12.20;52.30
45491;DHT22;31237;45.586;13.782;2023-04-10T08:27:20;12.30;49.40
45491;DHT22;31237;45.586;13.782;2023-04-10T08:29:46;12.40;50.00
45491;DHT22;31237;45.586;13.782;2023-04-10T08:32:11;12.40;49.60
45491;DHT22;31237;45.586;13.782;2023-04-10T08:34:37;12.50;49.80
45491;DHT22;31237;45.586;13.782;2023-04-10T08:37:05;12.50;50.10
45491;DHT22;31237;45.586;13.782;2023-04-10T08:39:34;12.70;49.90
45491;DHT22;31237;45.586;13.782;2023-04-10T08:42:00;12.70;48.70
45491;DHT22;31237;45.586;13.782;2023-04-10T08:44:26;12.60;48.90
45491;DHT22;31237;45.586;13.782;2023-04-10T08:46:52;12.70;49.10
45491;DHT22;31237;45.586;13.782;2023-04-10T08:49:34;12.70;49.00
45491;DHT22;31237;45.586;13.782;2023-04-10T08:52:10;12.80;48.00
45491;DHT22;31237;45.586;13.782;2023-04-10T08:54:40;12.80;48.40
45491;DHT22;31237;45.586;13.782;2023-04-10T08:57:06;12.80;47.70
45491;DHT22;31237;45.586;13.782;2023-04-10T08:59:32;12.80;47.60
45491;DHT22;31237;45.586;13.782;2023-04-10T09:01:58;12.90;48.10
45491;DHT22;31237;45.586;13.782;2023-04-10T09:04:25;13.00;48.60
45491;DHT22;31237;45.586;13.782;2023-04-10T09:06:52;13.10;48.80
45491;DHT22;31237;45.586;13.782;2023-04-10T09:09:18;13.30;48.30
45491;DHT22;31237;45.586;13.782;2023-04-10T09:14:32;13.50;47.20
45491;DHT22;31237;45.586;13.782;2023-04-10T09:17:17;13.60;47.50
45491;DHT22;31237;45.586;13.782;2023-04-10T09:19:47;13.80;46.50
45491;DHT22;31237;45.586;13.782;2023-04-10T09:22:14;13.90;46.40
45491;DHT22;31237;45.586;13.782;2023-04-10T09:24:42;14.00;46.20
45491;DHT22;31237;45.586;13.782;2023-04-10T09:27:09;14.10;46.10
45491;DHT22;31237;45.586;13.782;2023-04-10T09:29:45;14.20;45.90
45491;DHT22;31237;45.586;13.782;2023-04-10T09:32:46;14.30;45.80
45491;DHT22;31237;45.586;13.782;2023-04-10T09:35:14;14.40;45.20
45491;DHT22;31237;45.586;13.782;2023-04-10T09:37:41;14.50;44.70
45491;DHT22;31237;45.586;13.782;2023-04-10T09:40:22;14.50;44.50
45491;DHT22;31237;45.586;13.782;2023-04-10T09:42:52;14.50;44.50
45491;DHT22;31237;45.586;13.782;2023-04-10T09:45:20;14.50;44.50
45491;DHT22;31237;45.586;13.782;2023-04-10T09:48:07;14.60;44.40
45491;DHT22;31237;45.586;13.782;2023-04-10T09:50:39;14.70;44.50
45491;DHT22;31237;45.586;13.782;2023-04-10T09:53:06;14.70;44.80
45491;DHT22;31237;45.586;13.782;2023-04-10T09:55:34;14.70;45.00
45491;DHT22;31237;45.586;13.782;2023-04-10T09:58:00;14.80;45.10
45491;DHT22;31237;45.586;13.782;2023-04-10T10:00:28;15.00;44.00
45491;DHT22;31237;45.586;13.782;2023-04-10T10:02:54;15.00;43.60
45491;DHT22;31237;45.586;13.782;2023-04-10T10:05:22;15.00;43.50
45491;DHT22;31237;45.586;13.782;2023-04-10T10:07:52;15.10;43.40
45491;DHT22;31237;45.586;13.782;2023-04-10T10:10:18;15.10;43.50
45491;DHT22;31237;45.586;13.782;2023-04-10T10:12:52;15.20;43.30
45491;DHT22;31237;45.586;13.782;2023-04-10T10:15:35;15.20;43.00
45491;DHT22;31237;45.586;13.782;2023-04-10T10:18:12;15.30;42.60
45491;DHT22;31237;45.586;13.782;2023-04-10T10:20:44;15.40;43.50
45491;DHT22;31237;45.586;13.782;2023-04-10T10:23:10;15.50;43.10
45491;DHT22;31237;45.586;13.782;2023-04-10T10:25:38;15.70;42.70
45491;DHT22;31237;45.586;13.782;2023-04-10T10:28:04;15.70;42.80
45491;DHT22;31237;45.586;13.782;2023-04-10T10:30:31;15.80;43.00
45491;DHT22;31237;45.586;13.782;2023-04-10T10:32:58;15.90;42.30
45491;DHT22;31237;45.586;13.782;2023-04-10T10:35:30;16.00;42.10
45491;DHT22;31237;45.586;13.782;2023-04-10T10:37:59;16.00;41.90
45491;DHT22;31237;45.586;13.782;2023-04-10T10:43:53;16.20;43.00
45491;DHT22;31237;45.586;13.782;2023-04-10T10:49:00;16.30;41.40
45491;DHT22;31237;45.586;13.782;2023-04-10T10:51:44;16.40;42.10
45491;DHT22;31237;45.586;13.782;2023-04-10T10:56:53;16.60;41.80
45491;DHT22;31237;45.586;13.782;2023-04-10T11:02:14;16.70;41.30
45491;DHT22;31237;45.586;13.782;2023-04-10T11:04:50;16.80;40.90
45491;DHT22;31237;45.586;13.782;2023-04-10T11:07:16;16.80;40.70
45491;DHT22;31237;45.586;13.782;2023-04-10T11:09:52;16.80;41.10
45491;DHT22;31237;45.586;13.782;2023-04-10T11:12:23;16.80;41.10
45491;DHT22;31237;45.586;13.782;2023-04-10T11:14:59;16.80;41.50
45491;DHT22;31237;45.586;13.782;2023-04-10T11:20:17;17.10;41.10
45491;DHT22;31237;45.586;13.782;2023-04-10T11:26:03;17.40;41.10
45491;DHT22;31237;45.586;13.782;2023-04-10T11:28:37;17.50;40.20
45491;DHT22;31237;45.586;13.782;2023-04-10T11:31:23;17.60;40.40
45491;DHT22;31237;45.586;13.782;2023-04-10T11:36:24;18.00;45.50
45491;DHT22;31237;45.586;13.782;2023-04-10T11:39:03;18.10;46.30
45491;DHT22;31237;45.586;13.782;2023-04-10T11:41:39;18.30;46.80
45491;DHT22;31237;45.586;13.782;2023-04-10T11:44:10;18.30;43.80
45491;DHT22;31237;45.586;13.782;2023-04-10T11:46:37;18.50;47.40
45491;DHT22;31237;45.586;13.782;2023-04-10T11:49:05;18.40;41.60
45491;DHT22;31237;45.586;13.782;2023-04-10T11:51:32;18.50;46.00
45491;DHT22;31237;45.586;13.782;2023-04-10T11:54:24;18.50;47.40
45491;DHT22;31237;45.586;13.782;2023-04-10T11:59:30;18.40;42.50
45491;DHT22;31237;45.586;13.782;2023-04-10T12:04:32;18.30;46.80
45491;DHT22;31237;45.586;13.782;2023-04-10T12:06:58;18.20;44.10
45491;DHT22;31237;45.586;13.782;2023-04-10T12:09:24;18.10;46.00
45491;DHT22;31237;45.586;13.782;2023-04-10T12:11:56;18.10;45.60
45491;DHT22;31237;45.586;13.782;2023-04-10T12:14:41;18.00;45.20
45491;DHT22;31237;45.586;13.782;2023-04-10T12:17:09;18.00;45.80
45491;DHT22;31237;45.586;13.782;2023-04-10T12:19:35;18.00;45.30
45491;DHT22;31237;45.586;13.782;2023-04-10T12:22:02;18.10;45.90
45491;DHT22;31237;45.586;13.782;2023-04-10T12:24:48;18.10;46.00
45491;DHT22;31237;45.586;13.782;2023-04-10T12:27:25;18.20;45.30
45491;DHT22;31237;45.586;13.782;2023-04-10T12:29:53;18.10;44.60
45491;DHT22;31237;45.586;13.782;2023-04-10T12:32:19;18.10;45.30
45491;DHT22;31237;45.586;13.782;2023-04-10T12:34:52;18.00;45.20
45491;DHT22;31237;45.586;13.782;2023-04-10T12:37:19;17.90;45.20
45491;DHT22;31237;45.586;13.782;2023-04-10T12:39:45;17.90;42.80
45491;DHT22;31237;45.586;13.782;2023-04-10T12:42:21;17.90;42.60
45491;DHT22;31237;45.586;13.782;2023-04-10T12:44:55;17.90;41.60
45491;DHT22;31237;45.586;13.782;2023-04-10T12:47:22;17.90;40.60
45491;DHT22;31237;45.586;13.782;2023-04-10T12:50:08;17.90;39.40
45491;DHT22;31237;45.586;13.782;2023-04-10T12:52:36;17.80;38.70
45491;DHT22;31237;45.586;13.782;2023-04-10T12:55:16;17.60;38.80
45491;DHT22;31237;45.586;13.782;2023-04-10T12:57:44;17.50;39.30
45491;DHT22;31237;45.586;13.782;2023-04-10T13:00:13;17.40;38.80
45491;DHT22;31237;45.586;13.782;2023-04-10T13:02:39;17.30;39.70
45491;DHT22;31237;45.586;13.782;2023-04-10T13:05:06;17.30;39.80
45491;DHT22;31237;45.586;13.782;2023-04-10T13:07:32;17.20;40.10
45491;DHT22;31237;45.586;13.782;2023-04-10T13:09:58;17.20;39.40
45491;DHT22;31237;45.586;13.782;2023-04-10T13:12:24;17.10;39.80
45491;DHT22;31237;45.586;13.782;2023-04-10T13:14:51;17.10;40.30
45491;DHT22;31237;45.586;13.782;2023-04-10T13:17:19;17.10;40.00
45491;DHT22;31237;45.586;13.782;2023-04-10T13:19:46;17.10;39.20
45491;DHT22;31237;45.586;13.782;2023-04-10T13:22:11;17.10;39.40
45491;DHT22;31237;45.586;13.782;2023-04-10T13:24:37;17.10;38.80
45491;DHT22;31237;45.586;13.782;2023-04-10T13:27:03;17.00;38.90
45491;DHT22;31237;45.586;13.782;2023-04-10T13:29:28;16.90;39.40
45491;DHT22;31237;45.586;13.782;2023-04-10T13:31:54;16.90;38.70
45491;DHT22;31237;45.586;13.782;2023-04-10T13:34:20;16.80;39.30
45491;DHT22;31237;45.586;13.782;2023-04-10T13:36:46;16.70;40.00
45491;DHT22;31237;45.586;13.782;2023-04-10T13:39:12;16.70;40.10
45491;DHT22;31237;45.586;13.782;2023-04-10T13:41:38;16.70;40.20
45491;DHT22;31237;45.586;13.782;2023-04-10T13:44:03;16.70;40.10
45491;DHT22;31237;45.586;13.782;2023-04-10T13:46:29;16.70;40.30
45491;DHT22;31237;45.586;13.782;2023-04-10T13:48:56;16.70;40.20
45491;DHT22;31237;45.586;13.782;2023-04-10T13:51:21;16.70;40.40
45491;DHT22;31237;45.586;13.782;2023-04-10T13:53:47;16.70;39.80
45491;DHT22;31237;45.586;13.782;2023-04-10T13:56:13;16.70;39.30
45491;DHT22;31237;45.586;13.782;2023-04-10T13:58:38;16.60;39.40
45491;DHT22;31237;45.586;13.782;2023-04-10T14:01:04;16.60;40.10
45491;DHT22;31237;45.586;13.782;2023-04-10T14:03:30;16.60;40.40
45491;DHT22;31237;45.586;13.782;2023-04-10T14:05:56;16.60;40.40
45491;DHT22;31237;45.586;13.782;2023-04-10T14:08:22;16.60;38.90
45491;DHT22;31237;45.586;13.782;2023-04-10T14:10:48;16.50;38.30
45491;DHT22;31237;45.586;13.782;2023-04-10T14:13:17;16.50;38.80
45491;DHT22;31237;45.586;13.782;2023-04-10T14:15:43;16.50;39.30
45491;DHT22;31237;45.586;13.782;2023-04-10T14:18:09;16.50;38.80
45491;DHT22;31237;45.586;13.782;2023-04-10T14:20:35;16.50;39.30
45491;DHT22;31237;45.586;13.782;2023-04-10T14:23:00;16.50;39.70
45491;DHT22;31237;45.586;13.782;2023-04-10T14:25:26;16.50;40.00
45491;DHT22;31237;45.586;13.782;2023-04-10T14:27:52;16.50;40.30
45491;DHT22;31237;45.586;13.782;2023-04-10T14:30:17;16.50;40.00
45491;DHT22;31237;45.586;13.782;2023-04-10T14:32:43;16.50;40.40
45491;DHT22;31237;45.586;13.782;2023-04-10T14:35:09;16.40;41.60
45491;DHT22;31237;45.586;13.782;2023-04-10T14:37:35;16.40;42.60
45491;DHT22;31237;45.586;13.782;2023-04-10T14:40:02;16.30;43.30
45491;DHT22;31237;45.586;13.782;2023-04-10T14:42:29;16.30;43.00
45491;DHT22;31237;45.586;13.782;2023-04-10T14:44:55;16.30;41.40
45491;DHT22;31237;45.586;13.782;2023-04-10T14:47:23;16.30;41.50
45491;DHT22;31237;45.586;13.782;2023-04-10T14:49:49;16.40;42.50
45491;DHT22;31237;45.586;13.782;2023-04-10T14:52:15;16.30;42.60
45491;DHT22;31237;45.586;13.782;2023-04-10T14:54:44;16.30;42.30
45491;DHT22;31237;45.586;13.782;2023-04-10T14:57:09;16.30;42.70
45491;DHT22;31237;45.586;13.782;2023-04-10T14:59:36;16.20;42.60
45491;DHT22;31237;45.586;13.782;2023-04-10T15:02:02;16.20;43.00
45491;DHT22;31237;45.586;13.782;2023-04-10T15:04:27;16.20;43.40
45491;DHT22;31237;45.586;13.782;2023-04-10T15:06:53;16.20;43.90
45491;DHT22;31237;45.586;13.782;2023-04-10T15:09:19;16.20;43.50
45491;DHT22;31237;45.586;13.782;2023-04-10T15:11:44;16.10;43.40
45491;DHT22;31237;45.586;13.782;2023-04-10T15:14:11;16.10;43.60
45491;DHT22;31237;45.586;13.782;2023-04-10T15:16:37;16.10;43.80
45491;DHT22;31237;45.586;13.782;2023-04-10T15:19:02;16.10;43.30
45491;DHT22;31237;45.586;13.782;2023-04-10T15:21:28;16.00;43.50
45491;DHT22;31237;45.586;13.782;2023-04-10T15:23:54;16.00;43.60
45491;DHT22;31237;45.586;13.782;2023-04-10T15:26:19;16.00;44.00
45491;DHT22;31237;45.586;13.782;2023-04-10T15:28:45;15.90;44.20
45491;DHT22;31237;45.586;13.782;2023-04-10T15:31:12;15.90;44.20
45491;DHT22;31237;45.586;13.782;2023-04-10T15:33:37;15.80;44.60
45491;DHT22;31237;45.586;13.782;2023-04-10T15:36:05;15.80;44.70
45491;DHT22;31237;45.586;13.782;2023-04-10T15:38:33;15.70;45.30
45491;DHT22;31237;45.586;13.782;2023-04-10T15:41:00;15.70;45.80
45491;DHT22;31237;45.586;13.782;2023-04-10T15:43:26;15.70;46.20
45491;DHT22;31237;45.586;13.782;2023-04-10T15:45:52;15.70;46.30
45491;DHT22;31237;45.586;13.782;2023-04-10T15:48:18;15.60;46.20
45491;DHT22;31237;45.586;13.782;2023-04-10T15:50:43;15.50;45.90
45491;DHT22;31237;45.586;13.782;2023-04-10T15:53:09;15.50;46.00
45491;DHT22;31237;45.586;13.782;2023-04-10T15:55:39;15.50;45.80
45491;DHT22;31237;45.586;13.782;2023-04-10T15:58:05;15.40;45.90
45491;DHT22;31237;45.586;13.782;2023-04-10T16:00:30;15.40;46.30
45491;DHT22;31237;45.586;13.782;2023-04-10T16:02:56;15.30;46.00
45491;DHT22;31237;45.586;13.782;2023-04-10T16:05:22;15.30;46.30
45491;DHT22;31237;45.586;13.782;2023-04-10T16:07:47;15.30;46.00
45491;DHT22;31237;45.586;13.782;2023-04-10T16:10:13;15.20;46.20